Time,TemperatureF,DewpointF,PressureIn,WindDirection,WindDirectionDegrees,WindSpeedMPH,WindSpeedGustMPH,Humidity,HourlyPrecipIn,Conditions,Clouds,dailyrainin,SoftwareType,DateUTC
2013-12-06 00:01:00,29.1,14.1,29.94,South,169,0.0,0.0,53,0.00,,---,0.00,VWS V14.01,2013-12-06 07:01:00,
2013-12-06 00:06:00,28.6,13.6,29.94,South,170,0.0,0.0,53,0.00,,---,0.00,VWS V14.01,2013-12-06 07:06:00,
2013-12-06 00:11:00,28.6,13.6,29.94,South,170,0.0,0.0,53,0.00,,---,0.00,VWS V14.01,2013-12-06 07:11:00,
2013-12-06 00:17:00,28.2,13.3,29.94,South,170,0.0,0.0,53,0.00,,---,0.00,VWS V14.01,2013-12-06 07:17:00,
2013-12-06 00:22:00,28.2,13.3,29.94,South,170,0.0,0.0,53,0.00,,---,0.00,VWS V14.01,2013-12-06 07:22:00,
2013-12-06 00:27:00,28.0,13.1,29.94,South,170,0.0,0.0,53,0.00,,---,0.00,VWS V14.01,2013-12-06 07:27:00,
2013-12-06 00:32:00,27.3,12.5,29.94,SW,234,0.0,0.0,53,0.00,,---,0.00,VWS V14.01,2013-12-06 07:32:00,
2013-12-06 00:37:00,26.6,13.0,29.94,SW,234,0.0,0.0,56,0.00,,---,0.00,VWS V14.01,2013-12-06 07:37:00,
2013-12-06 00:42:00,26.4,12.0,29.94,SW,235,0.0,0.0,54,0.00,,---,0.00,VWS V14.01,2013-12-06 07:42:00,
2013-12-06 00:47:00,26.4,12.0,29.94,SW,234,0.0,0.0,54,0.00,,---,0.00,VWS V14.01,2013-12-06 07:47:00,
2013-12-06 00:52:00,26.4,12.0,29.94,SW,233,0.0,0.0,54,0.00,,---,0.00,VWS V14.01,2013-12-06 07:52:00,
2013-12-06 00:57:00,26.4,12.0,29.94,SW,234,0.0,0.0,54,0.00,,---,0.00,VWS V14.01,2013-12-06 07:57:00,
2013-12-06 01:02:00,26.2,12.7,29.94,SW,233,0.0,0.0,56,0.00,,---,0.00,VWS V14.01,2013-12-06 08:02:00,
2013-12-06 01:07:00,25.9,13.5,29.94,SW,233,0.0,0.0,59,0.00,,---,0.00,VWS V14.01,2013-12-06 08:07:00,
2013-12-06 01:12:00,25.9,14.3,29.94,SW,233,0.0,0.0,61,0.00,,---,0.00,VWS V14.01,2013-12-06 08:12:00,
2013-12-06 01:17:00,25.9,14.3,29.94,SW,233,0.0,0.0,61,0.00,,---,0.00,VWS V14.01,2013-12-06 08:17:00,
2013-12-06 01:22:00,25.7,15.2,29.94,SW,233,0.0,0.0,64,0.00,,---,0.00,VWS V14.01,2013-12-06 08:22:00,
2013-12-06 01:28:00,25.7,15.2,29.94,SW,233,0.0,0.0,64,0.00,,---,0.00,VWS V14.01,2013-12-06 08:28:00,
2013-12-06 01:33:00,25.5,15.8,29.94,SW,233,0.0,0.0,66,0.00,,---,0.00,VWS V14.01,2013-12-06 08:33:00,
2013-12-06 01:38:00,25.3,15.6,29.94,SW,233,0.0,0.0,66,0.00,,---,0.00,VWS V14.01,2013-12-06 08:38:00,
2013-12-06 01:43:00,25.3,15.6,29.94,SW,233,0.0,0.0,66,0.00,,---,0.00,VWS V14.01,2013-12-06 08:43:00,
2013-12-06 01:48:00,25.0,15.2,29.94,SW,233,0.0,0.0,66,0.00,,---,0.00,VWS V14.01,2013-12-06 08:48:00,
2013-12-06 01:53:00,25.2,15.4,29.94,SW,233,0.0,0.0,66,0.00,,---,0.00,VWS V14.01,2013-12-06 08:53:00,
2013-12-06 01:58:00,25.3,14.9,29.94,SW,233,0.0,0.0,64,0.00,,---,0.00,VWS V14.01,2013-12-06 08:58:00,
2013-12-06 02:03:00,25.3,14.9,29.94,SW,233,0.0,0.0,64,0.00,,---,0.00,VWS V14.01,2013-12-06 09:03:00,
2013-12-06 02:08:00,25.3,14.9,29.94,SW,233,0.0,0.0,64,0.00,,---,0.00,VWS V14.01,2013-12-06 09:08:00,
2013-12-06 02:13:00,25.2,14.7,29.94,SW,233,0.0,0.0,64,0.00,,---,0.00,VWS V14.01,2013-12-06 09:13:00,
2013-12-06 02:18:00,25.0,14.5,29.94,SW,233,0.0,0.0,64,0.00,,---,0.00,VWS V14.01,2013-12-06 09:18:00,
2013-12-06 02:23:00,25.0,14.5,29.94,SW,233,0.0,0.0,64,0.00,,---,0.00,VWS V14.01,2013-12-06 09:23:00,
2013-12-06 02:28:00,24.8,14.4,29.94,SW,233,0.0,0.0,64,0.00,,---,0.00,VWS V14.01,2013-12-06 09:28:00,
2013-12-06 02:33:00,24.6,14.2,29.94,SW,233,0.0,0.0,64,0.00,,---,0.00,VWS V14.01,2013-12-06 09:33:00,
2013-12-06 02:38:00,24.6,14.2,29.94,SW,233,0.0,0.0,64,0.00,,---,0.00,VWS V14.01,2013-12-06 09:38:00,
2013-12-06 02:43:00,24.6,14.2,29.94,SW,233,0.0,0.0,64,0.00,,---,0.00,VWS V14.01,2013-12-06 09:43:00,
2013-12-06 02:48:00,24.4,15.1,29.94,SW,233,0.0,0.0,67,0.00,,---,0.00,VWS V14.01,2013-12-06 09:48:00,
2013-12-06 02:53:00,24.3,14.9,29.94,SW,233,0.0,0.0,67,0.00,,---,0.00,VWS V14.01,2013-12-06 09:53:00,
2013-12-06 02:58:00,24.1,14.7,29.94,SW,233,0.0,0.0,67,0.00,,---,0.00,VWS V14.01,2013-12-06 09:58:00,
2013-12-06 03:03:00,24.1,14.7,29.94,SW,233,0.0,0.0,67,0.00,,---,0.00,VWS V14.01,2013-12-06 10:03:00,
2013-12-06 03:08:00,23.9,14.6,29.94,SW,233,0.0,0.0,67,0.00,,---,0.00,VWS V14.01,2013-12-06 10:08:00,
2013-12-06 03:13:00,23.7,14.4,29.94,SW,233,0.0,0.0,67,0.00,,---,0.00,VWS V14.01,2013-12-06 10:13:00,
2013-12-06 03:18:00,23.5,14.2,29.94,SW,233,0.0,0.0,67,0.00,,---,0.00,VWS V14.01,2013-12-06 10:18:00,
2013-12-06 03:23:00,23.7,14.4,29.94,SW,233,0.0,0.0,67,0.00,,---,0.00,VWS V14.01,2013-12-06 10:23:00,
2013-12-06 03:28:00,23.7,14.4,29.94,SW,233,0.0,0.0,67,0.00,,---,0.00,VWS V14.01,2013-12-06 10:28:00,
2013-12-06 03:33:00,24.4,14.0,29.94,SW,233,0.0,0.0,64,0.00,,---,0.00,VWS V14.01,2013-12-06 10:33:00,
2013-12-06 03:38:00,24.4,14.0,29.97,SW,233,0.0,0.0,64,0.00,,---,0.00,VWS V14.01,2013-12-06 10:38:00,
2013-12-06 03:43:00,23.9,13.5,29.97,SW,233,0.0,0.0,64,0.00,,---,0.00,VWS V14.01,2013-12-06 10:43:00,
2013-12-06 03:48:00,23.7,14.4,29.97,SW,233,0.0,0.0,67,0.00,,---,0.00,VWS V14.01,2013-12-06 10:48:00,
2013-12-06 03:53:00,23.7,14.4,29.97,SW,233,0.0,0.0,67,0.00,,---,0.00,VWS V14.01,2013-12-06 10:53:00,
2013-12-06 03:58:00,23.4,14.0,29.97,SW,233,0.0,0.0,67,0.00,,---,0.00,VWS V14.01,2013-12-06 10:58:00,
2013-12-06 04:03:00,23.4,14.0,29.97,SW,233,0.0,0.0,67,0.00,,---,0.00,VWS V14.01,2013-12-06 11:03:00,
2013-12-06 04:08:00,23.4,14.0,29.97,SW,233,0.0,0.0,67,0.00,,---,0.00,VWS V14.01,2013-12-06 11:08:00,
2013-12-06 04:13:00,23.4,14.0,29.97,SW,233,0.0,0.0,67,0.00,,---,0.00,VWS V14.01,2013-12-06 11:13:00,
2013-12-06 04:18:00,23.4,14.0,29.97,SW,233,0.0,0.0,67,0.00,,---,0.00,VWS V14.01,2013-12-06 11:18:00,
2013-12-06 04:24:00,22.8,13.9,29.97,SW,233,0.0,0.0,68,0.00,,---,0.00,VWS V14.01,2013-12-06 11:24:00,
2013-12-06 04:29:00,22.8,13.9,29.97,SW,233,0.0,0.0,68,0.00,,---,0.00,VWS V14.01,2013-12-06 11:29:00,
2013-12-06 04:34:00,22.8,13.9,29.97,SW,233,0.0,0.0,68,0.00,,---,0.00,VWS V14.01,2013-12-06 11:34:00,
2013-12-06 04:39:00,22.8,13.9,29.97,SW,233,0.0,0.0,68,0.00,,---,0.00,VWS V14.01,2013-12-06 11:39:00,
2013-12-06 04:44:00,22.8,13.9,29.97,SW,233,0.0,0.0,68,0.00,,---,0.00,VWS V14.01,2013-12-06 11:44:00,
2013-12-06 04:49:00,22.6,13.7,29.97,SW,233,0.0,0.0,68,0.00,,---,0.00,VWS V14.01,2013-12-06 11:49:00,
2013-12-06 04:54:00,22.5,13.5,29.97,SW,233,0.0,0.0,68,0.00,,---,0.00,VWS V14.01,2013-12-06 11:54:00,
2013-12-06 04:59:00,22.6,13.7,29.97,SW,233,0.0,0.0,68,0.00,,---,0.00,VWS V14.01,2013-12-06 11:59:00,
2013-12-06 05:04:00,22.6,13.7,29.97,SW,233,0.0,0.0,68,0.00,,---,0.00,VWS V14.01,2013-12-06 12:04:00,
2013-12-06 05:09:00,22.6,13.7,29.97,SW,233,0.0,0.0,68,0.00,,---,0.00,VWS V14.01,2013-12-06 12:09:00,
2013-12-06 05:14:00,22.6,13.7,29.97,SW,233,0.0,0.0,68,0.00,,---,0.00,VWS V14.01,2013-12-06 12:14:00,
2013-12-06 05:19:00,22.3,13.3,29.97,SW,233,0.0,0.0,68,0.00,,---,0.00,VWS V14.01,2013-12-06 12:19:00,
2013-12-06 05:24:00,22.1,13.2,29.97,SW,233,0.0,0.0,68,0.00,,---,0.00,VWS V14.01,2013-12-06 12:24:00,
2013-12-06 05:29:00,22.1,13.2,29.97,SW,233,0.0,0.0,68,0.00,,---,0.00,VWS V14.01,2013-12-06 12:29:00,
2013-12-06 05:34:00,22.1,13.2,29.97,SW,233,0.0,0.0,68,0.00,,---,0.00,VWS V14.01,2013-12-06 12:34:00,
2013-12-06 05:39:00,21.6,12.6,29.97,SW,233,0.0,0.0,68,0.00,,---,0.00,VWS V14.01,2013-12-06 12:39:00,
2013-12-06 05:44:00,21.6,13.0,29.97,SW,233,0.0,0.0,69,0.00,,---,0.00,VWS V14.01,2013-12-06 12:44:00,
2013-12-06 05:49:00,21.6,13.0,29.97,SW,233,0.0,0.0,69,0.00,,---,0.00,VWS V14.01,2013-12-06 12:49:00,
2013-12-06 05:54:00,21.6,13.3,29.97,SW,233,0.0,0.0,70,0.00,,---,0.00,VWS V14.01,2013-12-06 12:54:00,
2013-12-06 05:59:00,21.6,13.3,29.97,SW,233,0.0,0.0,70,0.00,,---,0.00,VWS V14.01,2013-12-06 12:59:00,
2013-12-06 06:04:00,21.0,12.8,29.97,SW,233,0.0,0.0,70,0.00,,---,0.00,VWS V14.01,2013-12-06 13:04:00,
2013-12-06 06:10:00,20.8,12.6,29.97,SW,233,0.0,0.0,70,0.00,,---,0.00,VWS V14.01,2013-12-06 13:10:00,
2013-12-06 06:15:00,20.7,12.8,29.97,SW,233,0.0,0.0,71,0.00,,---,0.00,VWS V14.01,2013-12-06 13:15:00,
2013-12-06 06:20:00,20.5,13.2,29.97,SW,233,0.0,0.0,73,0.00,,---,0.00,VWS V14.01,2013-12-06 13:20:00,
2013-12-06 06:25:00,20.5,13.2,30.00,SW,233,0.0,0.0,73,0.00,,---,0.00,VWS V14.01,2013-12-06 13:25:00,
2013-12-06 06:30:00,20.3,13.4,30.00,SW,233,0.0,0.0,74,0.00,,---,0.00,VWS V14.01,2013-12-06 13:30:00,
2013-12-06 06:35:00,20.7,13.7,30.00,SW,233,0.0,0.0,74,0.00,,---,0.00,VWS V14.01,2013-12-06 13:35:00,
2013-12-06 06:40:00,20.7,13.7,30.00,SW,233,0.0,0.0,74,0.00,,---,0.00,VWS V14.01,2013-12-06 13:40:00,
2013-12-06 06:45:00,21.0,13.4,30.00,SW,233,0.0,0.0,72,0.00,,---,0.00,VWS V14.01,2013-12-06 13:45:00,
2013-12-06 06:50:00,21.2,13.6,30.00,SW,233,0.0,0.0,72,0.00,,---,0.00,VWS V14.01,2013-12-06 13:50:00,
2013-12-06 06:55:00,21.2,13.6,30.00,SW,233,0.0,0.0,72,0.00,,---,0.00,VWS V14.01,2013-12-06 13:55:00,
2013-12-06 07:00:00,21.0,13.4,30.00,SW,233,0.0,0.0,72,0.00,,---,0.00,VWS V14.01,2013-12-06 14:00:00,
2013-12-06 07:05:00,21.0,13.4,30.00,SW,233,0.0,0.0,72,0.00,,---,0.00,VWS V14.01,2013-12-06 14:05:00,
2013-12-06 07:10:00,20.8,13.2,30.00,SW,233,0.0,0.0,72,0.00,,---,0.00,VWS V14.01,2013-12-06 14:10:00,
2013-12-06 07:15:00,20.8,13.6,30.00,SW,233,0.0,0.0,73,0.00,,---,0.00,VWS V14.01,2013-12-06 14:15:00,
2013-12-06 07:20:00,20.7,12.8,30.00,SW,233,0.0,0.0,71,0.00,,---,0.00,VWS V14.01,2013-12-06 14:20:00,
2013-12-06 07:25:00,21.0,13.1,30.00,SW,233,0.0,0.0,71,0.00,,---,0.00,VWS V14.01,2013-12-06 14:25:00,
2013-12-06 07:30:00,21.0,13.1,30.00,SW,233,0.0,0.0,71,0.00,,---,0.00,VWS V14.01,2013-12-06 14:30:00,
2013-12-06 07:35:00,21.2,13.0,30.00,SW,233,0.0,0.0,70,0.00,,---,0.00,VWS V14.01,2013-12-06 14:35:00,
2013-12-06 07:40:00,21.4,12.8,30.00,SW,233,0.0,0.0,69,0.00,,---,0.00,VWS V14.01,2013-12-06 14:40:00,
2013-12-06 07:46:00,21.4,12.8,30.00,SW,233,0.0,0.0,69,0.00,,---,0.00,VWS V14.01,2013-12-06 14:46:00,
2013-12-06 07:51:00,22.3,13.7,30.00,SW,233,0.0,0.0,69,0.00,,---,0.00,VWS V14.01,2013-12-06 14:51:00,
2013-12-06 07:56:00,22.8,14.2,30.00,SW,233,0.0,0.0,69,0.00,,---,0.00,VWS V14.01,2013-12-06 14:56:00,
2013-12-06 08:01:00,23.2,14.2,30.00,SW,233,0.0,0.0,68,0.00,,---,0.00,VWS V14.01,2013-12-06 15:01:00,
2013-12-06 08:06:00,23.7,14.7,30.00,SW,233,0.0,0.0,68,0.00,,---,0.00,VWS V14.01,2013-12-06 15:06:00,
2013-12-06 08:11:00,24.4,15.7,30.00,SW,233,0.0,0.0,69,0.00,,---,0.00,VWS V14.01,2013-12-06 15:11:00,
2013-12-06 08:16:00,25.2,16.1,30.03,SW,233,0.0,0.0,68,0.00,,---,0.00,VWS V14.01,2013-12-06 15:16:00,
2013-12-06 08:21:00,25.9,16.5,30.03,SW,233,0.0,0.0,67,0.00,,---,0.00,VWS V14.01,2013-12-06 15:21:00,
2013-12-06 08:26:00,26.4,16.6,30.03,SW,233,0.0,0.0,66,0.00,,---,0.00,VWS V14.01,2013-12-06 15:26:00,
2013-12-06 08:31:00,27.0,16.1,30.03,SW,233,0.0,0.0,63,0.00,,---,0.00,VWS V14.01,2013-12-06 15:31:00,
2013-12-06 08:36:00,27.3,15.7,30.03,SW,233,0.0,0.0,61,0.00,,---,0.00,VWS V14.01,2013-12-06 15:36:00,
2013-12-06 08:41:00,27.9,16.2,30.03,SW,233,0.0,0.0,61,0.00,,---,0.00,VWS V14.01,2013-12-06 15:41:00,
2013-12-06 08:46:00,28.2,15.4,30.03,SW,233,0.0,0.0,58,0.00,,---,0.00,VWS V14.01,2013-12-06 15:46:00,
2013-12-06 08:51:00,28.8,15.9,30.03,SW,233,0.0,0.0,58,0.00,,---,0.00,VWS V14.01,2013-12-06 15:51:00,
2013-12-06 08:56:00,29.3,15.1,30.03,SW,233,0.0,0.0,55,0.00,,---,0.00,VWS V14.01,2013-12-06 15:56:00,
2013-12-06 09:01:00,29.5,15.3,30.03,SW,233,0.0,0.0,55,0.00,,---,0.00,VWS V14.01,2013-12-06 16:01:00,
2013-12-06 09:06:00,29.8,15.7,30.03,West,260,0.0,0.0,55,0.00,,---,0.00,VWS V14.01,2013-12-06 16:06:00,
2013-12-06 09:11:00,30.4,16.2,30.03,West,272,0.0,0.0,55,0.00,,---,0.00,VWS V14.01,2013-12-06 16:11:00,
2013-12-06 09:16:00,30.9,15.8,30.03,West,277,0.0,0.0,53,0.00,,---,0.00,VWS V14.01,2013-12-06 16:16:00,
2013-12-06 09:21:00,31.1,16.0,30.03,WNW,286,0.0,0.0,53,0.00,,---,0.00,VWS V14.01,2013-12-06 16:21:00,
2013-12-06 09:26:00,31.1,16.0,30.03,WNW,297,0.0,0.0,53,0.00,,---,0.00,VWS V14.01,2013-12-06 16:26:00,
2013-12-06 09:31:00,31.8,16.6,30.03,NW,311,0.0,0.0,53,0.00,,---,0.00,VWS V14.01,2013-12-06 16:31:00,
2013-12-06 09:36:00,32.2,17.0,30.03,NW,314,0.0,0.0,53,0.00,,---,0.00,VWS V14.01,2013-12-06 16:36:00,
2013-12-06 09:41:00,32.5,16.0,30.03,NW,314,0.0,0.0,50,0.00,,---,0.00,VWS V14.01,2013-12-06 16:41:00,
2013-12-06 09:46:00,32.5,16.0,30.03,NW,319,0.0,0.0,50,0.00,,---,0.00,VWS V14.01,2013-12-06 16:46:00,
2013-12-06 09:51:00,32.7,16.1,30.06,NW,319,0.0,0.0,50,0.00,,---,0.00,VWS V14.01,2013-12-06 16:51:00,
2013-12-06 09:56:00,32.9,16.3,30.06,NNW,338,0.0,0.0,50,0.00,,---,0.00,VWS V14.01,2013-12-06 16:56:00,
2013-12-06 10:01:00,33.1,16.5,30.06,NNW,338,0.0,0.0,50,0.00,,---,0.00,VWS V14.01,2013-12-06 17:01:00,
2013-12-06 10:06:00,33.3,16.6,30.06,NNW,328,0.0,0.0,50,0.00,,---,0.00,VWS V14.01,2013-12-06 17:06:00,
2013-12-06 10:11:00,33.6,16.0,30.06,NW,319,0.0,0.0,48,0.00,,---,0.00,VWS V14.01,2013-12-06 17:11:00,
2013-12-06 10:16:00,33.8,15.7,30.06,NW,326,0.0,0.0,47,0.00,,---,0.00,VWS V14.01,2013-12-06 17:16:00,
2013-12-06 10:22:00,34.0,15.9,30.06,NNW,335,0.0,0.0,47,0.00,,---,0.00,VWS V14.01,2013-12-06 17:22:00,
2013-12-06 10:27:00,34.2,16.0,30.06,NNW,331,0.0,0.0,47,0.00,,---,0.00,VWS V14.01,2013-12-06 17:27:00,
2013-12-06 10:32:00,34.5,16.4,30.06,NNW,331,0.0,0.0,47,0.00,,---,0.00,VWS V14.01,2013-12-06 17:32:00,
2013-12-06 10:37:00,34.9,16.7,30.06,NNW,335,0.0,0.0,47,0.00,,---,0.00,VWS V14.01,2013-12-06 17:37:00,
2013-12-06 10:42:00,35.1,16.9,30.06,NNW,337,0.0,0.0,47,0.00,,---,0.00,VWS V14.01,2013-12-06 17:42:00,
2013-12-06 10:47:00,35.2,17.0,30.06,NNW,344,0.0,0.0,47,0.00,,---,0.00,VWS V14.01,2013-12-06 17:47:00,
2013-12-06 10:52:00,35.4,17.2,30.06,NNW,337,0.0,0.0,47,0.00,,---,0.00,VWS V14.01,2013-12-06 17:52:00,
2013-12-06 10:57:00,35.8,17.5,30.06,NNW,338,0.0,0.0,47,0.00,,---,0.00,VWS V14.01,2013-12-06 17:57:00,
2013-12-06 11:02:00,36.0,17.7,30.06,NNW,334,3.1,3.1,47,0.00,,---,0.00,VWS V14.01,2013-12-06 18:02:00,
2013-12-06 11:07:00,36.0,17.7,30.06,North,353,0.0,0.0,47,0.00,,---,0.00,VWS V14.01,2013-12-06 18:07:00,
2013-12-06 11:12:00,36.3,18.0,30.06,NNW,334,0.0,0.0,47,0.00,,---,0.00,VWS V14.01,2013-12-06 18:12:00,
2013-12-06 11:17:00,36.7,18.4,30.06,NNW,341,0.0,0.0,47,0.00,,---,0.00,VWS V14.01,2013-12-06 18:17:00,
2013-12-06 11:22:00,37.0,18.7,30.06,NW,316,0.0,0.0,47,0.00,,---,0.00,VWS V14.01,2013-12-06 18:22:00,
2013-12-06 11:27:00,37.0,18.7,30.06,NNW,327,0.0,0.0,47,0.00,,---,0.00,VWS V14.01,2013-12-06 18:27:00,
2013-12-06 11:32:00,37.4,18.5,30.06,East,90,2.2,2.2,46,0.00,,---,0.00,VWS V14.01,2013-12-06 18:32:00,
2013-12-06 11:37:00,37.6,18.7,30.06,ENE,77,0.0,0.0,46,0.00,,---,0.00,VWS V14.01,2013-12-06 18:37:00,
2013-12-06 11:42:00,37.9,19.0,30.06,NE,49,0.0,0.0,46,0.00,,---,0.00,VWS V14.01,2013-12-06 18:42:00,
2013-12-06 11:47:00,37.9,19.0,30.03,North,10,4.0,4.0,46,0.00,,---,0.00,VWS V14.01,2013-12-06 18:47:00,
2013-12-06 11:52:00,38.1,19.2,30.03,NNE,15,0.0,0.0,46,0.00,,---,0.00,VWS V14.01,2013-12-06 18:52:00,
2013-12-06 11:57:00,38.3,19.4,30.03,East,86,0.0,0.0,46,0.00,,---,0.00,VWS V14.01,2013-12-06 18:57:00,
2013-12-06 12:03:00,38.5,19.5,30.03,East,95,0.0,0.0,46,0.00,,---,0.00,VWS V14.01,2013-12-06 19:03:00,
2013-12-06 12:08:00,38.7,19.7,30.03,East,94,0.0,0.0,46,0.00,,---,0.00,VWS V14.01,2013-12-06 19:08:00,
2013-12-06 12:13:00,38.8,19.8,30.03,NE,41,0.0,0.0,46,0.00,,---,0.00,VWS V14.01,2013-12-06 19:13:00,
2013-12-06 12:18:00,39.2,20.2,30.03,ENE,78,3.6,3.6,46,0.00,,---,0.00,VWS V14.01,2013-12-06 19:18:00,
2013-12-06 12:23:00,39.2,20.2,30.03,NE,39,0.0,4.0,46,0.00,,---,0.00,VWS V14.01,2013-12-06 19:23:00,
2013-12-06 12:28:00,39.0,20.0,30.03,ENE,74,0.0,0.0,46,0.00,,---,0.00,VWS V14.01,2013-12-06 19:28:00,
2013-12-06 12:33:00,39.4,20.3,30.03,NE,37,5.4,5.4,46,0.00,,---,0.00,VWS V14.01,2013-12-06 19:33:00,
2013-12-06 12:38:00,39.4,20.3,30.00,NNE,27,3.6,3.6,46,0.00,,---,0.00,VWS V14.01,2013-12-06 19:38:00,
2013-12-06 12:43:00,40.5,21.3,30.00,SE,140,0.0,0.0,46,0.00,,---,0.00,VWS V14.01,2013-12-06 19:43:00,
2013-12-06 12:48:00,41.0,21.8,30.00,ESE,114,0.0,0.0,46,0.00,,---,0.00,VWS V14.01,2013-12-06 19:48:00,
2013-12-06 12:53:00,41.0,21.8,30.00,ESE,120,0.0,0.0,46,0.00,,---,0.00,VWS V14.01,2013-12-06 19:53:00,
2013-12-06 12:58:00,41.0,21.8,30.00,ESE,118,0.0,0.0,46,0.00,,---,0.00,VWS V14.01,2013-12-06 19:58:00,
2013-12-06 13:03:00,41.2,22.0,30.00,SSE,164,0.0,0.0,46,0.00,,---,0.00,VWS V14.01,2013-12-06 20:03:00,
2013-12-06 13:08:00,41.0,21.8,30.00,SSE,167,0.0,0.0,46,0.00,,---,0.00,VWS V14.01,2013-12-06 20:08:00,
2013-12-06 13:13:00,40.8,21.7,30.00,NE,52,0.0,0.0,46,0.00,,---,0.00,VWS V14.01,2013-12-06 20:13:00,
2013-12-06 13:18:00,40.8,21.7,30.00,NE,39,0.0,0.0,46,0.00,,---,0.00,VWS V14.01,2013-12-06 20:18:00,
2013-12-06 13:23:00,41.2,22.0,30.00,NNE,27,0.0,0.0,46,0.00,,---,0.00,VWS V14.01,2013-12-06 20:23:00,
2013-12-06 13:28:00,41.5,22.3,29.97,ENE,64,0.0,0.0,46,0.00,,---,0.00,VWS V14.01,2013-12-06 20:28:00,
2013-12-06 13:33:00,41.5,22.3,29.97,East,81,0.0,0.0,46,0.00,,---,0.00,VWS V14.01,2013-12-06 20:33:00,
2013-12-06 13:38:00,41.9,22.6,29.97,ENE,78,0.0,0.0,46,0.00,,---,0.00,VWS V14.01,2013-12-06 20:38:00,
2013-12-06 13:43:00,42.1,22.8,29.97,North,357,0.0,0.0,46,0.00,,---,0.00,VWS V14.01,2013-12-06 20:43:00,
2013-12-06 13:48:00,41.9,22.6,29.97,ENE,68,3.6,3.6,46,0.00,,---,0.00,VWS V14.01,2013-12-06 20:48:00,
2013-12-06 13:54:00,42.1,22.8,29.97,ENE,67,2.7,2.7,46,0.00,,---,0.00,VWS V14.01,2013-12-06 20:54:00,
2013-12-06 13:59:00,42.3,23.0,29.97,NE,39,5.4,5.4,46,0.00,,---,0.00,VWS V14.01,2013-12-06 20:59:00,
2013-12-06 14:04:00,42.1,22.8,29.97,NE,39,5.4,5.4,46,0.00,,---,0.00,VWS V14.01,2013-12-06 21:04:00,
2013-12-06 14:09:00,41.9,22.6,29.97,North,7,2.7,2.7,46,0.00,,---,0.00,VWS V14.01,2013-12-06 21:09:00,
2013-12-06 14:14:00,41.7,22.5,29.97,NE,34,2.7,2.7,46,0.00,,---,0.00,VWS V14.01,2013-12-06 21:14:00,
2013-12-06 14:19:00,42.3,23.0,29.97,ENE,75,0.0,0.0,46,0.00,,---,0.00,VWS V14.01,2013-12-06 21:19:00,
2013-12-06 14:24:00,42.4,23.1,29.97,ENE,68,0.0,0.0,46,0.00,,---,0.00,VWS V14.01,2013-12-06 21:24:00,
2013-12-06 14:29:00,42.4,23.1,29.97,East,89,0.0,0.0,46,0.00,,---,0.00,VWS V14.01,2013-12-06 21:29:00,
2013-12-06 14:34:00,42.8,23.0,29.97,East,89,0.0,0.0,45,0.00,,---,0.00,VWS V14.01,2013-12-06 21:34:00,
2013-12-06 14:39:00,43.2,23.3,29.97,East,97,0.0,0.0,45,0.00,,---,0.00,VWS V14.01,2013-12-06 21:39:00,
2013-12-06 14:44:00,43.0,23.1,29.97,ENE,71,0.0,0.0,45,0.00,,---,0.00,VWS V14.01,2013-12-06 21:44:00,
2013-12-06 14:49:00,42.8,23.0,29.97,ENE,72,0.0,0.0,45,0.00,,---,0.00,VWS V14.01,2013-12-06 21:49:00,
2013-12-06 14:54:00,43.0,23.1,29.97,East,100,0.0,0.0,45,0.00,,---,0.00,VWS V14.01,2013-12-06 21:54:00,
2013-12-06 14:59:00,43.3,23.4,29.97,East,100,0.0,0.0,45,0.00,,---,0.00,VWS V14.01,2013-12-06 21:59:00,
2013-12-06 15:04:00,42.8,23.0,29.97,SSE,166,0.0,0.0,45,0.00,,---,0.00,VWS V14.01,2013-12-06 22:04:00,
2013-12-06 15:09:00,42.8,23.0,29.97,SSE,166,0.0,0.0,45,0.00,,---,0.00,VWS V14.01,2013-12-06 22:09:00,
2013-12-06 15:14:00,43.3,23.4,29.97,East,100,0.0,0.0,45,0.00,,---,0.00,VWS V14.01,2013-12-06 22:14:00,
2013-12-06 15:19:00,43.9,23.9,29.97,East,100,0.0,0.0,45,0.00,,---,0.00,VWS V14.01,2013-12-06 22:19:00,
2013-12-06 15:24:00,43.9,23.9,29.97,NW,306,0.0,0.0,45,0.00,,---,0.00,VWS V14.01,2013-12-06 22:24:00,
2013-12-06 15:29:00,43.5,23.6,29.97,NNW,327,0.0,0.0,45,0.00,,---,0.00,VWS V14.01,2013-12-06 22:29:00,
2013-12-06 15:34:00,43.3,23.4,29.97,NNW,327,0.0,0.0,45,0.00,,---,0.00,VWS V14.01,2013-12-06 22:34:00,
2013-12-06 15:39:00,43.3,23.4,29.97,NNW,327,0.0,0.0,45,0.00,,---,0.00,VWS V14.01,2013-12-06 22:39:00,
2013-12-06 15:44:00,43.2,23.3,29.97,NNW,327,0.0,0.0,45,0.00,,---,0.00,VWS V14.01,2013-12-06 22:44:00,
2013-12-06 15:49:00,42.6,23.3,29.94,NNW,327,0.0,0.0,46,0.00,,---,0.00,VWS V14.01,2013-12-06 22:49:00,
2013-12-06 15:54:00,42.3,23.0,29.94,NNE,25,0.0,0.0,46,0.00,,---,0.00,VWS V14.01,2013-12-06 22:54:00,
2013-12-06 15:59:00,41.7,22.5,29.94,NNE,25,0.0,0.0,46,0.00,,---,0.00,VWS V14.01,2013-12-06 22:59:00,
2013-12-06 16:05:00,41.4,22.1,29.94,NNE,25,0.0,0.0,46,0.00,,---,0.00,VWS V14.01,2013-12-06 23:05:00,
2013-12-06 16:10:00,41.0,21.8,29.94,NNE,22,0.0,0.0,46,0.00,,---,0.00,VWS V14.01,2013-12-06 23:10:00,
2013-12-06 16:15:00,40.6,21.5,29.94,NNE,22,0.0,0.0,46,0.00,,---,0.00,VWS V14.01,2013-12-06 23:15:00,
2013-12-06 16:20:00,40.6,21.5,29.94,NNE,19,0.0,0.0,46,0.00,,---,0.00,VWS V14.01,2013-12-06 23:20:00,
2013-12-06 16:25:00,40.6,21.5,29.94,NNE,19,0.0,0.0,46,0.00,,---,0.00,VWS V14.01,2013-12-06 23:25:00,
2013-12-06 16:30:00,40.6,21.5,29.94,NNE,19,0.0,0.0,46,0.00,,---,0.00,VWS V14.01,2013-12-06 23:30:00,
2013-12-06 16:35:00,40.6,21.5,29.94,NNE,19,0.0,0.0,46,0.00,,---,0.00,VWS V14.01,2013-12-06 23:35:00,
2013-12-06 16:40:00,40.3,21.2,29.94,NNE,19,0.0,0.0,46,0.00,,---,0.00,VWS V14.01,2013-12-06 23:40:00,
2013-12-06 16:45:00,40.5,21.3,29.94,NNE,19,0.0,0.0,46,0.00,,---,0.00,VWS V14.01,2013-12-06 23:45:00,
2013-12-06 16:50:00,40.3,21.2,29.94,NNE,19,0.0,0.0,46,0.00,,---,0.00,VWS V14.01,2013-12-06 23:50:00,
2013-12-06 16:55:00,39.6,20.5,29.94,SW,226,0.0,0.0,46,0.00,,---,0.00,VWS V14.01,2013-12-06 23:55:00,
2013-12-06 17:00:00,38.5,19.5,29.94,SW,226,0.0,0.0,46,0.00,,---,0.00,VWS V14.01,2013-12-07 00:00:00,
2013-12-06 17:05:00,37.8,18.9,29.94,SW,225,0.0,0.0,46,0.00,,---,0.00,VWS V14.01,2013-12-07 00:05:00,
2013-12-06 17:10:00,37.0,18.7,29.97,SW,226,0.0,0.0,47,0.00,,---,0.00,VWS V14.01,2013-12-07 00:10:00,
2013-12-06 17:15:00,36.7,18.4,29.97,SW,226,0.0,0.0,47,0.00,,---,0.00,VWS V14.01,2013-12-07 00:15:00,
2013-12-06 17:20:00,36.1,17.9,29.97,SW,226,0.0,0.0,47,0.00,,---,0.00,VWS V14.01,2013-12-07 00:20:00,
2013-12-06 17:25:00,35.8,17.5,29.97,SW,226,0.0,0.0,47,0.00,,---,0.00,VWS V14.01,2013-12-07 00:25:00,
2013-12-06 17:30:00,35.8,17.5,29.94,SW,224,0.0,0.0,47,0.00,,---,0.00,VWS V14.01,2013-12-07 00:30:00,
2013-12-06 17:35:00,35.6,17.4,29.94,SW,224,0.0,0.0,47,0.00,,---,0.00,VWS V14.01,2013-12-07 00:35:00,
2013-12-06 17:40:00,35.4,17.2,29.94,SW,224,0.0,0.0,47,0.00,,---,0.00,VWS V14.01,2013-12-07 00:40:00,
2013-12-06 17:45:00,35.1,16.9,29.94,SW,224,0.0,0.0,47,0.00,,---,0.00,VWS V14.01,2013-12-07 00:45:00,
2013-12-06 17:51:00,35.2,17.0,29.94,SW,224,0.0,0.0,47,0.00,,---,0.00,VWS V14.01,2013-12-07 00:51:00,
2013-12-06 17:56:00,35.2,17.0,29.94,SW,223,0.0,0.0,47,0.00,,---,0.00,VWS V14.01,2013-12-07 00:56:00,
2013-12-06 18:01:00,35.2,17.0,29.94,SW,224,0.0,0.0,47,0.00,,---,0.00,VWS V14.01,2013-12-07 01:01:00,
2013-12-06 18:06:00,35.4,17.2,29.94,SW,224,0.0,0.0,47,0.00,,---,0.00,VWS V14.01,2013-12-07 01:06:00,
2013-12-06 18:11:00,35.4,17.2,29.94,SW,225,0.0,0.0,47,0.00,,---,0.00,VWS V14.01,2013-12-07 01:11:00,
2013-12-06 18:16:00,35.2,17.0,29.94,SW,223,0.0,0.0,47,0.00,,---,0.00,VWS V14.01,2013-12-07 01:16:00,
2013-12-06 18:21:00,35.1,16.9,29.94,SW,223,0.0,0.0,47,0.00,,---,0.00,VWS V14.01,2013-12-07 01:21:00,
2013-12-06 18:26:00,34.7,16.5,29.94,SW,223,0.0,0.0,47,0.00,,---,0.00,VWS V14.01,2013-12-07 01:26:00,
2013-12-06 18:31:00,34.3,16.2,29.94,SSE,166,0.0,0.0,47,0.00,,---,0.00,VWS V14.01,2013-12-07 01:31:00,
2013-12-06 18:36:00,34.2,16.0,29.97,SSE,166,0.0,0.0,47,0.00,,---,0.00,VWS V14.01,2013-12-07 01:36:00,
2013-12-06 18:41:00,34.2,16.0,29.97,South,174,0.0,0.0,47,0.00,,---,0.00,VWS V14.01,2013-12-07 01:41:00,
2013-12-06 18:46:00,34.2,16.0,29.97,South,174,0.0,0.0,47,0.00,,---,0.00,VWS V14.01,2013-12-07 01:46:00,
2013-12-06 18:51:00,33.8,15.7,29.97,South,174,0.0,0.0,47,0.00,,---,0.00,VWS V14.01,2013-12-07 01:51:00,
2013-12-06 18:56:00,33.8,15.7,29.97,SSE,164,3.6,3.6,47,0.00,,---,0.00,VWS V14.01,2013-12-07 01:56:00,
2013-12-06 19:01:00,33.8,15.7,29.97,SSE,168,0.0,0.0,47,0.00,,---,0.00,VWS V14.01,2013-12-07 02:01:00,
2013-12-06 19:06:00,33.3,15.7,29.97,SSE,168,0.0,0.0,48,0.00,,---,0.00,VWS V14.01,2013-12-07 02:06:00,
2013-12-06 19:12:00,32.5,15.0,29.97,SSE,168,0.0,0.0,48,0.00,,---,0.00,VWS V14.01,2013-12-07 02:12:00,
2013-12-06 19:17:00,32.0,14.6,29.97,SSE,168,0.0,0.0,48,0.00,,---,0.00,VWS V14.01,2013-12-07 02:17:00,
2013-12-06 19:22:00,31.6,14.2,29.97,SSE,168,0.0,0.0,48,0.00,,---,0.00,VWS V14.01,2013-12-07 02:22:00,
2013-12-06 19:27:00,31.8,14.4,29.97,SSE,168,0.0,0.0,48,0.00,,---,0.00,VWS V14.01,2013-12-07 02:27:00,
2013-12-06 19:32:00,32.0,14.6,29.97,SSE,168,0.0,0.0,48,0.00,,---,0.00,VWS V14.01,2013-12-07 02:32:00,
2013-12-06 19:37:00,32.2,14.7,29.97,SSE,168,0.0,0.0,48,0.00,,---,0.00,VWS V14.01,2013-12-07 02:37:00,
2013-12-06 19:42:00,32.0,14.6,29.97,SSE,168,0.0,0.0,48,0.00,,---,0.00,VWS V14.01,2013-12-07 02:42:00,
2013-12-06 19:47:00,31.5,15.0,29.97,SSE,164,0.0,0.0,50,0.00,,---,0.00,VWS V14.01,2013-12-07 02:47:00,
2013-12-06 19:52:00,30.6,14.1,29.97,South,169,0.0,0.0,50,0.00,,---,0.00,VWS V14.01,2013-12-07 02:52:00,
2013-12-06 19:57:00,30.4,14.0,29.97,South,169,0.0,0.0,50,0.00,,---,0.00,VWS V14.01,2013-12-07 02:57:00,
2013-12-06 20:02:00,30.4,14.0,29.97,South,169,0.0,0.0,50,0.00,,---,0.00,VWS V14.01,2013-12-07 03:02:00,
2013-12-06 20:07:00,30.4,14.0,29.97,South,169,0.0,0.0,50,0.00,,---,0.08,VWS V14.01,2013-12-07 03:07:00,
2013-12-06 20:12:00,30.4,14.0,29.97,South,169,0.0,0.0,50,0.00,,---,0.00,VWS V14.01,2013-12-07 03:12:00,
2013-12-06 20:17:00,30.2,15.1,29.97,South,169,0.0,0.0,53,0.00,,---,0.00,VWS V14.01,2013-12-07 03:17:00,
2013-12-06 20:22:00,30.4,15.3,29.97,South,173,0.0,0.0,53,0.00,,---,0.00,VWS V14.01,2013-12-07 03:22:00,
2013-12-06 20:28:00,30.6,15.5,29.97,South,173,0.0,0.0,53,0.00,,---,0.00,VWS V14.01,2013-12-07 03:28:00,
2013-12-06 20:33:00,30.6,15.5,29.97,South,173,0.0,0.0,53,0.00,,---,0.00,VWS V14.01,2013-12-07 03:33:00,
2013-12-06 20:38:00,30.0,15.0,29.97,South,173,0.0,0.0,53,0.00,,---,0.00,VWS V14.01,2013-12-07 03:38:00,
2013-12-06 20:43:00,29.5,14.5,29.97,SSW,207,0.0,0.0,53,0.00,,---,0.00,VWS V14.01,2013-12-07 03:43:00,
2013-12-06 20:48:00,29.1,15.0,29.97,SSW,207,0.0,0.0,55,0.00,,---,0.00,VWS V14.01,2013-12-07 03:48:00,
2013-12-06 20:53:00,29.1,15.0,29.97,SSW,207,0.0,0.0,55,0.00,,---,0.00,VWS V14.01,2013-12-07 03:53:00,
2013-12-06 20:58:00,29.1,14.1,29.97,SSW,207,0.0,0.0,53,0.00,,---,0.00,VWS V14.01,2013-12-07 03:58:00,
2013-12-06 21:03:00,29.5,14.5,29.97,SSW,207,0.0,0.0,53,0.00,,---,0.00,VWS V14.01,2013-12-07 04:03:00,
2013-12-06 21:08:00,29.8,14.8,29.97,SSW,207,0.0,0.0,53,0.00,,---,0.00,VWS V14.01,2013-12-07 04:08:00,
2013-12-06 21:14:00,29.8,14.8,29.97,SSW,207,0.0,0.0,53,0.00,,---,0.00,VWS V14.01,2013-12-07 04:14:00,
2013-12-06 21:19:00,29.7,15.5,29.97,SSW,207,0.0,0.0,55,0.00,,---,0.00,VWS V14.01,2013-12-07 04:19:00,
2013-12-06 21:24:00,29.5,14.5,29.97,SSW,207,0.0,0.0,53,0.00,,---,0.00,VWS V14.01,2013-12-07 04:24:00,
2013-12-06 21:29:00,29.8,14.8,29.97,SSW,207,0.0,0.0,53,0.00,,---,0.00,VWS V14.01,2013-12-07 04:29:00,
2013-12-06 21:34:00,30.4,15.3,29.97,SSW,207,0.0,0.0,53,0.00,,---,0.00,VWS V14.01,2013-12-07 04:34:00,
2013-12-06 21:39:00,30.6,15.5,29.97,SSW,207,0.0,0.0,53,0.00,,---,0.00,VWS V14.01,2013-12-07 04:39:00,
2013-12-06 21:44:00,30.4,15.3,29.97,SSW,207,0.0,0.0,53,0.00,,---,0.00,VWS V14.01,2013-12-07 04:44:00,
2013-12-06 21:49:00,30.2,15.1,29.97,SSW,207,0.0,0.0,53,0.00,,---,0.00,VWS V14.01,2013-12-07 04:49:00,
2013-12-06 21:54:00,29.8,14.8,29.97,SSW,207,0.0,0.0,53,0.00,,---,0.00,VWS V14.01,2013-12-07 04:54:00,
2013-12-06 21:59:00,29.3,14.3,29.97,SSW,207,0.0,0.0,53,0.00,,---,0.00,VWS V14.01,2013-12-07 04:59:00,
2013-12-06 22:01:00,29.1,14.1,29.97,SSW,207,0.0,0.0,53,0.00,,---,0.00,VWS V14.01,2013-12-07 05:01:00,
2013-12-06 22:02:00,29.1,14.1,29.97,SSW,207,0.0,0.0,53,0.00,,---,0.00,VWS V14.01,2013-12-07 05:02:00,
2013-12-06 22:03:00,29.1,14.1,29.97,SSW,207,0.0,0.0,53,0.00,,---,0.00,VWS V14.01,2013-12-07 05:03:00,
2013-12-06 22:08:00,29.1,14.1,29.97,SSW,207,0.0,0.0,53,0.00,,---,0.00,VWS V14.01,2013-12-07 05:08:00,
2013-12-06 22:13:00,28.8,13.8,29.97,SSW,207,0.0,0.0,53,0.00,,---,0.00,VWS V14.01,2013-12-07 05:13:00,
2013-12-06 22:18:00,28.6,13.6,29.97,SSW,207,0.0,0.0,53,0.00,,---,0.00,VWS V14.01,2013-12-07 05:18:00,
2013-12-06 22:19:00,28.4,13.5,29.97,SSW,207,0.0,0.0,53,0.00,,---,0.00,VWS V14.01,2013-12-07 05:19:00,
2013-12-06 22:24:00,28.0,13.1,29.97,SSW,207,0.0,0.0,53,0.00,,---,0.00,VWS V14.01,2013-12-07 05:24:00,
2013-12-06 22:29:00,28.2,13.3,29.97,SSW,207,0.0,0.0,53,0.00,,---,0.00,VWS V14.01,2013-12-07 05:29:00,
2013-12-06 22:35:00,28.6,13.6,29.97,SSW,207,0.0,0.0,53,0.00,,---,0.00,VWS V14.01,2013-12-07 05:35:00,
2013-12-06 22:40:00,28.0,14.4,29.97,SSW,207,0.0,0.0,56,0.00,,---,0.00,VWS V14.01,2013-12-07 05:40:00,
2013-12-06 22:45:00,28.2,13.3,29.97,SSW,207,0.0,0.0,53,0.00,,---,0.00,VWS V14.01,2013-12-07 05:45:00,
2013-12-06 22:50:00,28.6,13.6,29.97,SSW,207,0.0,0.0,53,0.00,,---,0.00,VWS V14.01,2013-12-07 05:50:00,
2013-12-06 22:55:00,28.6,13.6,29.97,SSW,207,0.0,0.0,53,0.00,,---,0.00,VWS V14.01,2013-12-07 05:55:00,
2013-12-06 23:00:00,28.6,13.6,29.97,SSW,207,0.0,0.0,53,0.00,,---,0.00,VWS V14.01,2013-12-07 06:00:00,
2013-12-06 23:05:00,28.4,13.5,29.97,SSW,207,0.0,0.0,53,0.00,,---,0.00,VWS V14.01,2013-12-07 06:05:00,
2013-12-06 23:10:00,28.4,13.5,29.97,SSW,207,0.0,0.0,53,0.00,,---,0.00,VWS V14.01,2013-12-07 06:10:00,
2013-12-06 23:15:00,28.2,13.3,29.97,SSW,207,0.0,0.0,53,0.00,,---,0.00,VWS V14.01,2013-12-07 06:15:00,
2013-12-06 23:20:00,28.6,13.6,29.97,SSW,207,0.0,0.0,53,0.00,,---,0.00,VWS V14.01,2013-12-07 06:20:00,
2013-12-06 23:26:00,28.6,13.6,29.97,SSW,207,0.0,0.0,53,0.00,,---,0.00,VWS V14.01,2013-12-07 06:26:00,
2013-12-06 23:31:00,28.2,13.3,29.97,SSW,207,0.0,0.0,53,0.00,,---,0.00,VWS V14.01,2013-12-07 06:31:00,
2013-12-06 23:36:00,28.2,13.3,29.97,SSW,207,0.0,0.0,53,0.00,,---,0.00,VWS V14.01,2013-12-07 06:36:00,
2013-12-06 23:41:00,27.7,12.8,29.97,SSW,207,0.0,0.0,53,0.00,,---,0.00,VWS V14.01,2013-12-07 06:41:00,
2013-12-06 23:46:00,27.1,13.5,29.97,SSW,207,0.0,0.0,56,0.00,,---,0.00,VWS V14.01,2013-12-07 06:46:00,
2013-12-06 23:51:00,27.0,13.4,29.94,SSW,207,0.0,0.0,56,0.00,,---,0.00,VWS V14.01,2013-12-07 06:51:00,
2013-12-06 23:56:00,27.0,13.4,29.94,SSW,207,0.0,0.0,56,0.00,,---,0.00,VWS V14.01,2013-12-07 06:56:00,